Estevan Airport
CYEN : now visible

Airfield :











YOU CAN JOIN US ON...

 
LOGIN :

Register | Disclaimer

   EN    FR    IT 

 









Legend :    VFR   Marginal VFR   IFR   Intensive IFR   Very Intensive IFR
Visi :
Ceiling :
>= 8 km
>= 3000ft
5 to 8 km
1000 to 3000 ft
1500m to 5 km
500 to 1000 ft
800 to 1500m
200 to 500 ft
< 800m
< 200 ft
Symbols :   Thunderstorms  Fog  Heavy snow  Heavy precipitations  Wind > 20 kt






- Airport Elevation : 1905 ft
- IATA code : YEN


CYEN - Estevan

CURRENT METAR :
  • 071900Z AUTO 27013G21KT 9SM FEW140 11/00 A2961 RMK SLP048 DENSITY ALT 2200FT

EXPIRED METARs :
  • 071800Z AUTO 27011G17KT 9SM CLR 09/01 A2962 RMK SLP053
  • 071700Z AUTO 25011G18KT 9SM CLR 08/01 A2963 RMK SLP057

TAF TAF CYEN
Valid from the 07 at 18:00 until the 08 at 00:00 UTC


071740Z 0718/0724 26010G20KT P6SM FEW060
BECMG 0719/0721 31015G28KT
FM072200 30018G28KT P6SM SCT040
TEMPO 0722/0724 P6SM -SHRA BKN040 RMK FCST BASED ON AUTO OBS. NXT FCST WILL BE ISSUED AT 081145Z



MET'MAP, your aeronautical weather chart ! - Copyright ORBIFLY December 2007 - Disclaimer

ORBIFLY MET'MAP TEAM :

Programming & Development : Alexandra Zaïnal
Concept & original design : Baudouin d'Aumeries
Assistance for programming : Marc-Olivier Méhu
Technical & hardware support : Manuel Goepfert

Contact : metmap@orbifly.com




SOURCES & CREDITS :

   NOAA       Earth
Advisory